Time;durP1;ratioP1;P1;durP2;ratioP2;P2;SDS_P1;SDS_P2;PMS_P1;PMS_P2;Temp;Humidity;BMP_temperature;BMP_pressure;BME280_temperature;BME280_humidity;BME280_pressure;Samples;Min_cycle;Max_cycle;Signal;HPM_P1;HPM_P2
2023/12/25 00:00:04;;;;;;;16.13;3.80;;;10.10;1.00;;;;;;5032509;28;20621;-73
2023/12/25 00:02:31;;;;;;;12.77;3.23;;;10.00;1.00;;;;;;5068076;28;20185;-65
2023/12/25 00:04:56;;;;;;;8.53;3.53;;;10.00;1.00;;;;;;5070313;28;20441;-74
2023/12/25 00:07:22;;;;;;;7.17;3.30;;;10.10;1.00;;;;;;5072046;28;20413;-73
2023/12/25 00:09:48;;;;;;;13.67;3.87;;;10.10;1.00;;;;;;5072341;28;20174;-65
2023/12/25 00:12:13;;;;;;;18.60;4.57;;;10.20;1.00;;;;;;5071922;28;20252;-74
2023/12/25 00:14:39;;;;;;;12.00;5.10;;;10.20;1.00;;;;;;5070317;28;20192;-65
2023/12/25 00:17:05;;;;;;;7.43;3.87;;;10.10;1.00;;;;;;5072191;28;20186;-68
2023/12/25 00:19:30;;;;;;;13.90;3.00;;;10.00;1.00;;;;;;5058571;28;20189;-73
2023/12/25 00:21:58;;;;;;;15.50;3.83;;;9.70;1.00;;;;;;5051100;28;20186;-66
2023/12/25 00:24:24;;;;;;;8.27;3.40;;;9.70;1.00;;;;;;5051886;28;20200;-73
2023/12/25 00:26:49;;;;;;;10.40;3.50;;;9.70;1.00;;;;;;5054864;28;20826;-71
2023/12/25 00:29:15;;;;;;;8.50;2.67;;;9.70;1.00;;;;;;5054214;28;20394;-73
2023/12/25 00:31:41;;;;;;;13.50;4.20;;;9.70;1.00;;;;;;5054429;28;20182;-70
2023/12/25 00:34:07;;;;;;;25.43;5.00;;;9.80;1.00;;;;;;5054877;28;20592;-69
2023/12/25 00:36:33;;;;;;;18.33;3.67;;;9.80;1.00;;;;;;5054799;28;20741;-73
2023/12/25 00:38:59;;;;;;;15.17;4.57;;;9.80;1.00;;;;;;5055406;28;20400;-70
2023/12/25 00:41:30;;;;;;;13.57;4.40;;;9.90;1.00;;;;;;5055343;28;20178;-72
2023/12/25 00:43:57;;;;;;;16.93;5.57;;;9.90;1.00;;;;;;5055001;28;20315;-66
2023/12/25 00:46:22;;;;;;;19.80;4.07;;;10.00;1.00;;;;;;5054434;28;20419;-73
2023/12/25 00:48:48;;;;;;;13.80;3.73;;;9.80;1.00;;;;;;5054779;28;20866;-66
2023/12/25 00:51:14;;;;;;;19.13;4.83;;;9.70;1.00;;;;;;5055336;28;20645;-75
2023/12/25 00:53:39;;;;;;;13.93;5.80;;;9.70;1.00;;;;;;5054335;28;20181;-66
2023/12/25 00:56:06;;;;;;;23.63;4.67;;;9.70;1.00;;;;;;5054277;28;20175;-73
2023/12/25 00:58:31;;;;;;;12.80;4.10;;;9.70;1.00;;;;;;5055084;28;20555;-71
2023/12/25 01:00:57;;;;;;;18.73;5.33;;;9.70;1.00;;;;;;5053677;28;20521;-72
2023/12/25 01:03:23;;;;;;;15.27;5.53;;;9.70;1.00;;;;;;5055879;28;20205;-71
2023/12/25 01:05:48;;;;;;;14.87;3.50;;;9.80;1.00;;;;;;5073728;28;20224;-66
2023/12/25 01:08:14;;;;;;;15.53;4.87;;;9.80;1.00;;;;;;5074386;28;20197;-66
2023/12/25 01:10:39;;;;;;;10.57;4.30;;;9.90;1.00;;;;;;5065987;28;20185;-66
2023/12/25 01:13:05;;;;;;;23.50;4.07;;;10.00;1.00;;;;;;5054660;28;20706;-65
2023/12/25 01:15:31;;;;;;;12.40;4.03;;;10.00;1.00;;;;;;5053962;28;20582;-70
2023/12/25 01:17:56;;;;;;;13.60;4.77;;;10.00;1.00;;;;;;5053663;28;20564;-74
2023/12/25 01:20:22;;;;;;;10.40;3.90;;;10.00;1.00;;;;;;5069844;28;20262;-67
2023/12/25 01:22:48;;;;;;;16.43;4.40;;;10.00;1.00;;;;;;5058126;28;20181;-66
2023/12/25 01:25:13;;;;;;;8.20;3.17;;;10.00;1.00;;;;;;5052130;28;20639;-67
2023/12/25 01:27:41;;;;;;;10.40;4.77;;;9.80;1.00;;;;;;5054061;28;20233;-71
2023/12/25 01:30:10;;;;;;;18.00;4.43;;;9.80;1.00;;;;;;5053039;28;20162;-69
2023/12/25 01:32:36;;;;;;;12.00;3.50;;;9.70;1.00;;;;;;5054246;28;20467;-66
2023/12/25 01:35:02;;;;;;;9.47;4.13;;;9.70;1.00;;;;;;5053322;28;20930;-70
2023/12/25 01:37:28;;;;;;;7.57;3.63;;;9.60;1.00;;;;;;5053222;28;20457;-68
2023/12/25 01:39:53;;;;;;;10.00;3.83;;;9.60;1.00;;;;;;5054151;28;20640;-70
2023/12/25 01:42:19;;;;;;;14.67;3.57;;;9.60;1.00;;;;;;5054002;28;20443;-73
2023/12/25 01:44:46;;;;;;;9.20;3.93;;;9.50;1.00;;;;;;5051924;28;20205;-69
2023/12/25 01:47:13;;;;;;;10.00;5.30;;;9.50;1.00;;;;;;5053651;28;20226;-74
2023/12/25 01:49:39;;;;;;;12.40;4.17;;;9.40;1.00;;;;;;5067258;28;20991;-65
2023/12/25 01:52:05;;;;;;;12.70;4.33;;;9.20;1.00;;;;;;5074055;28;20470;-66
2023/12/25 01:54:32;;;;;;;13.73;3.80;;;9.20;1.00;;;;;;5061152;28;20180;-72
2023/12/25 01:56:59;;;;;;;7.80;2.90;;;9.30;1.00;;;;;;5053748;28;20478;-74
2023/12/25 01:59:28;;;;;;;16.27;4.03;;;9.20;1.00;;;;;;5035750;28;20407;-73
2023/12/25 02:01:54;;;;;;;16.37;3.97;;;9.30;1.00;;;;;;5034151;28;20390;-74
2023/12/25 02:04:20;;;;;;;10.57;4.57;;;9.40;1.00;;;;;;5060697;28;20486;-72
2023/12/25 02:06:47;;;;;;;21.87;3.50;;;9.50;1.00;;;;;;5068043;28;20414;-68
2023/12/25 02:09:13;;;;;;;12.93;3.60;;;9.50;1.00;;;;;;5073567;28;20537;-75
2023/12/25 02:11:42;;;;;;;9.27;3.00;;;9.60;1.00;;;;;;5073689;28;20474;-66
2023/12/25 02:14:13;;;;;;;13.23;4.23;;;9.50;1.00;;;;;;5073602;28;20923;-73
2023/12/25 02:16:40;;;;;;;13.30;3.70;;;9.30;1.00;;;;;;5063554;28;20422;-73
2023/12/25 02:19:15;;;;;;;8.27;3.50;;;9.20;1.00;;;;;;5053244;28;20444;-69
2023/12/25 02:21:42;;;;;;;9.40;4.00;;;8.90;1.00;;;;;;5053446;28;20377;-70
2023/12/25 02:24:12;;;;;;;8.83;3.10;;;8.80;1.00;;;;;;5053442;28;20488;-70
2023/12/25 02:26:38;;;;;;;13.00;4.73;;;8.80;1.00;;;;;;5052043;28;20429;-73
2023/12/25 02:29:04;;;;;;;8.20;4.00;;;8.70;1.00;;;;;;5053243;28;20433;-67
2023/12/25 02:31:29;;;;;;;14.13;3.60;;;8.70;1.00;;;;;;5052246;28;20257;-66
2023/12/25 02:33:55;;;;;;;24.87;5.90;;;8.70;1.00;;;;;;5052172;28;20426;-66
2023/12/25 02:36:21;;;;;;;18.37;4.30;;;8.70;1.00;;;;;;5051590;28;20180;-68
2023/12/25 02:38:46;;;;;;;15.50;4.73;;;8.80;1.00;;;;;;5051972;28;20208;-69
2023/12/25 02:41:12;;;;;;;18.93;5.10;;;8.80;1.00;;;;;;5053268;28;20182;-66
2023/12/25 02:43:38;;;;;;;10.10;3.93;;;8.90;1.00;;;;;;5051704;28;20171;-67
2023/12/25 02:46:03;;;;;;;14.10;5.80;;;8.90;1.00;;;;;;5059152;28;20240;-68
2023/12/25 02:48:29;;;;;;;18.90;4.73;;;8.90;1.00;;;;;;5071767;28;20255;-72
2023/12/25 02:50:55;;;;;;;11.80;4.90;;;8.90;1.00;;;;;;5052969;28;20173;-66
2023/12/25 02:53:21;;;;;;;19.47;4.07;;;8.80;1.00;;;;;;5052795;28;20410;-72
2023/12/25 02:55:47;;;;;;;9.33;2.90;;;8.70;1.00;;;;;;5051938;28;20569;-71
2023/12/25 02:58:12;;;;;;;11.60;3.60;;;8.60;1.00;;;;;;5052890;28;20619;-69
2023/12/25 03:00:38;;;;;;;12.20;3.90;;;8.50;1.00;;;;;;5052498;28;20760;-68
2023/12/25 03:03:04;;;;;;;20.13;5.20;;;8.50;1.00;;;;;;5052865;28;20176;-69
2023/12/25 03:05:29;;;;;;;9.60;4.90;;;8.40;1.00;;;;;;5065818;28;20225;-72
2023/12/25 03:07:55;;;;;;;33.67;4.63;;;8.50;2.40;;;;;;5071670;28;20282;-72
2023/12/25 03:10:21;;;;;;;11.50;3.93;;;8.50;13.80;;;;;;5071596;28;20575;-69
2023/12/25 03:12:46;;;;;;;21.30;5.83;;;8.40;19.40;;;;;;5072446;28;20178;-70
2023/12/25 03:15:12;;;;;;;20.23;5.47;;;8.40;24.30;;;;;;5070682;28;20197;-73
2023/12/25 03:17:38;;;;;;;25.20;5.37;;;8.40;18.00;;;;;;5057136;28;20195;-70
2023/12/25 03:20:04;;;;;;;30.73;5.80;;;8.40;7.70;;;;;;5065074;28;20667;-67
2023/12/25 03:22:29;;;;;;;22.97;5.50;;;8.30;1.00;;;;;;5072740;28;20170;-67
2023/12/25 03:24:55;;;;;;;19.53;5.87;;;8.40;1.00;;;;;;5071515;28;20821;-70
2023/12/25 03:27:21;;;;;;;13.83;5.33;;;8.50;1.00;;;;;;5072272;28;20193;-72
2023/12/25 03:29:47;;;;;;;15.93;4.90;;;8.40;1.00;;;;;;5072386;28;20219;-69
2023/12/25 03:32:13;;;;;;;18.87;5.40;;;8.50;1.00;;;;;;5072585;28;20162;-67
2023/12/25 03:34:49;;;;;;;24.43;5.83;;;8.50;1.00;;;;;;5069315;28;20178;-69
2023/12/25 03:37:15;;;;;;;24.50;5.67;;;8.50;1.00;;;;;;5072337;28;20464;-72
2023/12/25 03:39:41;;;;;;;19.17;5.30;;;8.50;1.00;;;;;;5071315;28;20762;-67
2023/12/25 03:42:07;;;;;;;19.60;5.13;;;8.50;1.00;;;;;;5072489;28;20466;-66
2023/12/25 03:44:32;;;;;;;18.23;6.00;;;8.50;1.00;;;;;;5071655;28;20282;-68
2023/12/25 03:46:58;;;;;;;20.20;6.27;;;8.50;1.00;;;;;;5072397;28;20568;-66
2023/12/25 03:49:24;;;;;;;29.40;8.00;;;8.50;1.00;;;;;;5071149;28;20513;-72
2023/12/25 03:51:50;;;;;;;18.50;5.70;;;8.60;1.00;;;;;;5050056;28;20180;-66
2023/12/25 03:54:15;;;;;;;27.20;7.97;;;8.60;1.00;;;;;;5052098;28;20233;-74
2023/12/25 03:56:41;;;;;;;24.93;7.70;;;8.50;1.00;;;;;;5051171;28;20179;-72
2023/12/25 03:59:09;;;;;;;29.53;6.13;;;8.60;1.00;;;;;;5052240;28;20226;-67
2023/12/25 04:01:38;;;;;;;26.67;6.67;;;8.60;1.00;;;;;;5054817;28;20182;-73
2023/12/25 04:04:04;;;;;;;24.40;5.70;;;8.60;1.00;;;;;;5058361;28;20893;-73
2023/12/25 04:06:30;;;;;;;28.77;5.57;;;8.60;1.00;;;;;;5074139;28;20395;-73
2023/12/25 04:08:56;;;;;;;29.63;7.10;;;8.60;1.00;;;;;;5075636;28;20945;-73
2023/12/25 04:11:22;;;;;;;20.23;6.63;;;8.60;1.00;;;;;;5075923;28;20190;-66
2023/12/25 04:13:53;;;;;;;22.80;6.37;;;8.60;1.00;;;;;;5075603;28;20166;-70
2023/12/25 04:16:20;;;;;;;23.43;7.23;;;8.60;1.00;;;;;;5074986;28;20416;-69
2023/12/25 04:18:46;;;;;;;27.33;6.10;;;8.60;1.00;;;;;;5074612;28;20435;-70
2023/12/25 04:21:32;;;;;;;19.23;5.57;;;8.60;1.00;;;;;;5075612;28;20492;-68
2023/12/25 04:23:59;;;;;;;26.57;6.67;;;8.60;1.00;;;;;;5075761;28;20418;-66
2023/12/25 04:26:25;;;;;;;27.17;6.17;;;8.60;1.00;;;;;;5073540;28;20943;-73
2023/12/25 04:28:51;;;;;;;27.33;7.23;;;8.60;1.00;;;;;;5074269;28;20454;-68
2023/12/25 04:31:17;;;;;;;29.60;6.37;;;8.60;1.00;;;;;;5074204;28;20393;-69
2023/12/25 04:33:43;;;;;;;24.80;6.53;;;8.60;1.00;;;;;;5074367;28;20371;-73
2023/12/25 04:36:10;;;;;;;13.97;5.37;;;8.60;1.00;;;;;;5055280;28;20904;-67
2023/12/25 04:38:37;;;;;;;27.27;6.80;;;8.50;1.00;;;;;;5055239;28;20426;-67
2023/12/25 04:41:03;;;;;;;15.70;6.17;;;8.50;1.00;;;;;;5055273;28;20389;-73
2023/12/25 04:43:28;;;;;;;26.83;5.30;;;8.50;1.00;;;;;;5054987;28;20409;-67
2023/12/25 04:45:54;;;;;;;21.80;6.53;;;8.50;1.00;;;;;;5054466;28;20457;-69
2023/12/25 04:48:20;;;;;;;16.83;5.43;;;8.50;1.00;;;;;;5054792;28;20183;-73
2023/12/25 04:50:46;;;;;;;18.13;5.63;;;8.50;1.00;;;;;;5055897;28;20173;-71
2023/12/25 04:53:13;;;;;;;23.93;6.10;;;8.50;1.00;;;;;;5054022;28;20463;-73
2023/12/25 04:55:39;;;;;;;20.90;5.63;;;8.50;1.00;;;;;;5054248;28;20440;-72
2023/12/25 04:58:05;;;;;;;26.40;6.00;;;8.50;1.00;;;;;;5053554;28;20779;-69
2023/12/25 05:00:32;;;;;;;24.33;6.10;;;8.50;1.00;;;;;;5054766;28;20412;-68
2023/12/25 05:02:58;;;;;;;25.30;6.00;;;8.50;1.00;;;;;;5053514;28;20185;-74
2023/12/25 05:05:23;;;;;;;26.47;5.93;;;8.60;1.00;;;;;;5052657;28;20464;-72
2023/12/25 05:07:49;;;;;;;29.63;6.17;;;8.50;1.00;;;;;;5053282;28;20435;-71
2023/12/25 05:10:15;;;;;;;16.87;5.90;;;8.60;1.00;;;;;;5054794;28;20164;-73
2023/12/25 05:12:40;;;;;;;18.83;5.77;;;8.60;1.00;;;;;;5054822;28;20169;-69
2023/12/25 05:15:07;;;;;;;27.37;6.30;;;8.50;1.00;;;;;;5053917;28;20329;-67
2023/12/25 05:17:33;;;;;;;21.43;5.10;;;8.50;1.00;;;;;;5061095;28;20194;-68
2023/12/25 05:19:58;;;;;;;21.03;5.83;;;8.50;1.00;;;;;;5074191;28;20457;-65
2023/12/25 05:22:24;;;;;;;21.43;5.77;;;8.40;1.00;;;;;;5054071;28;20182;-71
2023/12/25 05:24:50;;;;;;;24.47;5.57;;;8.30;1.00;;;;;;5052434;28;20195;-66
2023/12/25 05:27:15;;;;;;;16.07;3.73;;;8.30;1.00;;;;;;5053467;28;20524;-73
2023/12/25 05:29:41;;;;;;;26.33;6.50;;;8.30;1.00;;;;;;5054455;28;20260;-72
2023/12/25 05:32:07;;;;;;;19.07;6.63;;;8.30;1.00;;;;;;5053946;28;20178;-69
2023/12/25 05:34:32;;;;;;;24.23;4.80;;;8.20;1.00;;;;;;5053454;28;20202;-69
2023/12/25 05:36:58;;;;;;;30.07;7.20;;;8.20;1.00;;;;;;5054392;28;20163;-66
2023/12/25 05:39:26;;;;;;;25.33;5.23;;;8.20;1.00;;;;;;5053609;28;20629;-69
2023/12/25 05:41:53;;;;;;;28.37;6.43;;;8.20;1.00;;;;;;5053260;28;20175;-67
2023/12/25 05:44:19;;;;;;;21.63;5.70;;;8.20;1.00;;;;;;5054047;28;20398;-69
2023/12/25 05:46:44;;;;;;;31.10;5.30;;;8.20;1.00;;;;;;5068221;28;20428;-73
2023/12/25 05:49:10;;;;;;;15.30;5.90;;;8.20;1.00;;;;;;5055488;28;20331;-73
2023/12/25 05:51:36;;;;;;;22.50;5.67;;;8.20;1.00;;;;;;5053930;28;20172;-74
2023/12/25 05:54:02;;;;;;;23.90;5.73;;;8.10;1.00;;;;;;5053931;28;20634;-69
2023/12/25 05:56:28;;;;;;;19.10;6.07;;;8.10;1.00;;;;;;5046109;28;20180;-66
2023/12/25 05:58:54;;;;;;;19.03;6.97;;;8.10;1.00;;;;;;5038829;28;20440;-66
2023/12/25 06:01:19;;;;;;;21.70;5.97;;;8.00;1.00;;;;;;5054037;28;20213;-72
2023/12/25 06:03:45;;;;;;;30.53;6.33;;;7.90;1.00;;;;;;5064084;28;20178;-74
2023/12/25 06:06:11;;;;;;;27.10;5.30;;;7.90;1.00;;;;;;5072855;28;20279;-67
2023/12/25 06:08:36;;;;;;;32.93;5.53;;;7.80;1.00;;;;;;5073418;28;20225;-66
2023/12/25 06:11:02;;;;;;;14.33;4.97;;;7.80;1.00;;;;;;5073686;28;20173;-72
2023/12/25 06:13:28;;;;;;;25.73;7.60;;;7.90;1.00;;;;;;5073036;28;20167;-66
2023/12/25 06:15:54;;;;;;;34.90;6.30;;;7.90;1.00;;;;;;5072928;28;20174;-73
2023/12/25 06:18:19;;;;;;;18.80;5.63;;;7.90;1.00;;;;;;5066679;28;20190;-66
2023/12/25 06:20:46;;;;;;;14.17;5.00;;;7.90;1.00;;;;;;5053695;28;20964;-67
2023/12/25 06:23:12;;;;;;;12.43;4.60;;;7.90;1.00;;;;;;5052089;28;20572;-74
2023/12/25 06:25:38;;;;;;;20.77;5.73;;;7.90;1.00;;;;;;5052390;28;20492;-67
2023/12/25 06:28:04;;;;;;;24.40;6.10;;;7.80;1.00;;;;;;5053048;28;20191;-68
2023/12/25 06:30:30;;;;;;;16.60;3.80;;;7.80;1.00;;;;;;5052112;28;20598;-70
2023/12/25 06:32:55;;;;;;;18.77;4.77;;;7.80;1.00;;;;;;5053064;28;20433;-74
2023/12/25 06:35:22;;;;;;;17.37;5.03;;;7.80;1.00;;;;;;5050656;28;20410;-73
2023/12/25 06:37:48;;;;;;;19.63;6.37;;;7.80;1.00;;;;;;5053188;28;20267;-74
2023/12/25 06:40:14;;;;;;;17.60;5.70;;;7.80;1.00;;;;;;5053180;28;20887;-67
2023/12/25 06:42:39;;;;;;;14.20;4.13;;;7.80;1.00;;;;;;5052066;28;20171;-70
2023/12/25 06:45:05;;;;;;;17.97;4.63;;;7.80;1.00;;;;;;5052014;28;20202;-73
2023/12/25 06:47:31;;;;;;;15.33;5.10;;;7.80;1.00;;;;;;5063566;28;20281;-70
2023/12/25 06:49:57;;;;;;;12.23;4.00;;;7.80;99.90;;;;;;5070852;28;20416;-66
2023/12/25 06:52:22;;;;;;;5.93;3.80;;;7.80;99.90;;;;;;5071599;28;20499;-66
2023/12/25 06:54:48;;;;;;;6.47;2.90;;;7.60;1.00;;;;;;5065217;28;20171;-65
2023/12/25 06:57:14;;;;;;;20.17;4.53;;;7.30;1.00;;;;;;5052734;28;20216;-74
2023/12/25 06:59:41;;;;;;;8.50;3.67;;;7.00;1.00;;;;;;5052731;28;20187;-74
2023/12/25 07:02:09;;;;;;;16.27;4.80;;;6.90;1.00;;;;;;5052866;28;20190;-66
2023/12/25 07:04:35;;;;;;;11.30;3.83;;;6.80;1.00;;;;;;5061047;28;20539;-73
2023/12/25 07:07:01;;;;;;;26.00;5.10;;;6.80;1.00;;;;;;5071576;28;20466;-71
2023/12/25 07:09:27;;;;;;;18.40;6.20;;;6.80;1.00;;;;;;5072825;28;20508;-70
2023/12/25 07:11:53;;;;;;;14.27;4.97;;;6.70;1.00;;;;;;5071331;28;20412;-65
2023/12/25 07:14:19;;;;;;;10.23;3.83;;;6.70;1.00;;;;;;5071458;28;20197;-67
2023/12/25 07:16:44;;;;;;;20.90;4.53;;;6.70;1.00;;;;;;5071364;28;20249;-68
2023/12/25 07:19:10;;;;;;;11.17;4.03;;;6.70;1.00;;;;;;5071670;28;20432;-72
2023/12/25 07:21:36;;;;;;;15.90;4.93;;;6.70;1.00;;;;;;5072530;28;20830;-73
2023/12/25 07:24:02;;;;;;;14.60;4.93;;;6.70;1.00;;;;;;5056618;28;20232;-74
2023/12/25 07:26:28;;;;;;;13.83;4.90;;;6.70;1.00;;;;;;5049985;28;20203;-67
2023/12/25 07:28:54;;;;;;;32.60;6.67;;;6.60;1.00;;;;;;5052004;28;20430;-69
2023/12/25 07:31:23;;;;;;;25.67;6.10;;;6.70;1.00;;;;;;5051696;28;20727;-72
2023/12/25 07:33:51;;;;;;;21.23;6.23;;;6.70;1.00;;;;;;5054334;28;20416;-65
2023/12/25 07:36:17;;;;;;;19.90;5.20;;;6.70;1.00;;;;;;5075101;28;20404;-67
2023/12/25 07:38:43;;;;;;;19.50;3.97;;;6.80;1.00;;;;;;5076463;28;20972;-69
2023/12/25 07:41:09;;;;;;;17.73;4.60;;;6.90;1.00;;;;;;5076653;28;20409;-66
2023/12/25 07:43:36;;;;;;;22.00;5.00;;;6.90;1.00;;;;;;5076487;28;20399;-73
2023/12/25 07:46:05;;;;;;;18.23;5.10;;;6.90;1.00;;;;;;5075332;28;20448;-70
2023/12/25 07:48:31;;;;;;;21.13;4.73;;;6.80;1.00;;;;;;5075192;28;20417;-66
2023/12/25 07:50:56;;;;;;;12.53;4.47;;;6.70;1.00;;;;;;5075058;28;20411;-72
2023/12/25 07:53:22;;;;;;;12.87;4.10;;;6.60;1.00;;;;;;5075473;28;20530;-66
2023/12/25 07:55:48;;;;;;;8.63;4.10;;;6.70;1.00;;;;;;5074550;28;20268;-65
2023/12/25 07:58:14;;;;;;;24.87;5.30;;;6.70;1.00;;;;;;5074805;28;20190;-67
2023/12/25 08:00:42;;;;;;;17.03;4.47;;;6.60;1.00;;;;;;5046097;28;20182;-74
2023/12/25 08:03:11;;;;;;;15.77;4.50;;;6.60;1.00;;;;;;5050343;28;20810;-74
2023/12/25 08:05:38;;;;;;;17.30;5.40;;;6.60;1.00;;;;;;5072947;28;20448;-72
2023/12/25 08:08:05;;;;;;;23.50;5.67;;;6.60;1.00;;;;;;5076064;28;20428;-66
2023/12/25 08:10:30;;;;;;;13.57;5.47;;;6.70;1.00;;;;;;5075733;28;20956;-65
2023/12/25 08:12:58;;;;;;;7.83;3.80;;;6.60;1.00;;;;;;5075836;28;20484;-74
2023/12/25 08:15:25;;;;;;;12.10;4.40;;;6.70;99.90;;;;;;5075059;28;20450;-73
2023/12/25 08:17:51;;;;;;;19.57;5.33;;;6.60;99.90;;;;;;5075721;28;20516;-67
2023/12/25 08:20:17;;;;;;;16.23;4.27;;;6.70;99.90;;;;;;5074414;28;20494;-72
2023/12/25 08:22:43;;;;;;;11.70;4.50;;;6.60;99.90;;;;;;5075716;28;20245;-74
2023/12/25 08:25:08;;;;;;;22.10;5.47;;;6.60;99.90;;;;;;5074636;28;20212;-65
2023/12/25 08:27:35;;;;;;;13.27;4.70;;;6.60;99.90;;;;;;5066175;28;20671;-71
2023/12/25 08:30:01;;;;;;;10.43;3.40;;;6.60;99.90;;;;;;5055337;28;20166;-68
2023/12/25 08:32:27;;;;;;;9.70;3.83;;;6.60;99.90;;;;;;5054237;28;20871;-74
2023/12/25 08:34:52;;;;;;;17.00;3.93;;;6.70;99.90;;;;;;5066207;28;20499;-72
2023/12/25 08:37:18;;;;;;;19.70;4.67;;;6.70;99.90;;;;;;5074113;28;20691;-73
2023/12/25 08:39:44;;;;;;;14.37;3.93;;;6.70;99.90;;;;;;5074041;28;20631;-74
2023/12/25 08:42:09;;;;;;;15.93;3.93;;;6.70;99.90;;;;;;5075516;28;20170;-74
2023/12/25 08:44:35;;;;;;;24.30;4.93;;;6.80;99.90;;;;;;5074506;28;20194;-67
2023/12/25 08:47:03;;;;;;;16.97;4.90;;;6.80;99.90;;;;;;5074863;28;20208;-72
2023/12/25 08:49:29;;;;;;;7.80;3.00;;;6.80;99.90;;;;;;5063610;28;20603;-73
2023/12/25 08:51:54;;;;;;;11.00;3.93;;;6.80;99.90;;;;;;5055258;28;20476;-75
2023/12/25 08:54:20;;;;;;;14.80;5.17;;;6.80;99.90;;;;;;5055066;28;20547;-67
2023/12/25 08:56:47;;;;;;;9.37;4.73;;;6.80;99.90;;;;;;5054180;28;20163;-67
2023/12/25 08:59:13;;;;;;;14.47;5.43;;;6.80;99.90;;;;;;5055067;28;20201;-73
2023/12/25 09:01:39;;;;;;;19.73;5.40;;;6.90;99.90;;;;;;5054799;28;20891;-75
2023/12/25 09:04:06;;;;;;;11.03;4.20;;;6.90;99.90;;;;;;5055663;28;20217;-70
2023/12/25 09:06:32;;;;;;;38.13;7.83;;;6.90;99.90;;;;;;5053816;28;20860;-72
2023/12/25 09:08:58;;;;;;;8.03;4.37;;;6.90;99.90;;;;;;5054814;28;20471;-65
2023/12/25 09:11:24;;;;;;;18.80;4.57;;;6.90;99.90;;;;;;5054754;28;20401;-66
2023/12/25 09:13:49;;;;;;;14.77;5.10;;;6.90;99.90;;;;;;5054642;28;20167;-65
2023/12/25 09:16:15;;;;;;;13.43;4.90;;;6.90;99.90;;;;;;5053910;28;20177;-75
2023/12/25 09:18:41;;;;;;;13.37;3.97;;;6.90;99.90;;;;;;5055346;28;20201;-73
2023/12/25 09:21:07;;;;;;;13.20;3.50;;;6.90;99.90;;;;;;5053764;28;20691;-66
2023/12/25 09:23:32;;;;;;;19.80;4.70;;;7.00;99.90;;;;;;5053264;28;20174;-70
2023/12/25 09:25:58;;;;;;;9.20;4.17;;;7.00;99.90;;;;;;5053134;28;20563;-65
2023/12/25 09:28:24;;;;;;;11.53;3.73;;;7.00;99.90;;;;;;5054402;28;20183;-64
2023/12/25 09:30:49;;;;;;;24.70;5.87;;;7.00;99.90;;;;;;5054181;28;20171;-67
2023/12/25 09:33:16;;;;;;;15.20;3.87;;;7.00;99.90;;;;;;5054302;28;20676;-65
2023/12/25 09:35:41;;;;;;;13.47;4.10;;;6.90;99.90;;;;;;5053245;28;20237;-73
2023/12/25 09:38:07;;;;;;;16.90;4.40;;;6.90;99.90;;;;;;5053170;28;20429;-75
2023/12/25 09:40:33;;;;;;;11.80;4.23;;;6.90;99.90;;;;;;5054319;28;20167;-75
2023/12/25 09:43:01;;;;;;;17.47;4.60;;;6.90;99.90;;;;;;5054442;28;20408;-75
2023/12/25 09:45:34;;;;;;;8.93;3.50;;;7.00;99.90;;;;;;5052941;28;20555;-74
2023/12/25 09:48:00;;;;;;;18.90;4.83;;;7.00;99.90;;;;;;5053977;28;20782;-75
2023/12/25 09:50:26;;;;;;;16.60;4.00;;;7.00;99.90;;;;;;5054542;28;20416;-73
2023/12/25 09:52:52;;;;;;;12.63;3.90;;;7.00;99.90;;;;;;5054203;28;20167;-75
2023/12/25 09:55:18;;;;;;;19.37;5.37;;;7.10;99.90;;;;;;5053317;28;20410;-74
2023/12/25 09:57:45;;;;;;;25.47;4.77;;;7.20;99.90;;;;;;5052766;28;20417;-75
2023/12/25 10:00:11;;;;;;;17.00;4.50;;;7.20;99.90;;;;;;5041767;28;20639;-74
2023/12/25 10:02:43;;;;;;;24.07;3.90;;;7.20;99.90;;;;;;5033857;28;20431;-65
2023/12/25 10:05:09;;;;;;;14.77;4.27;;;7.30;99.90;;;;;;5049330;28;20511;-75
2023/12/25 10:07:35;;;;;;;14.17;5.23;;;7.30;99.90;;;;;;5053620;28;20425;-65
2023/12/25 10:10:02;;;;;;;11.47;4.00;;;7.40;99.90;;;;;;5053289;28;20456;-69
2023/12/25 10:12:28;;;;;;;6.43;3.70;;;7.50;99.90;;;;;;5054017;28;20429;-76
2023/12/25 10:14:54;;;;;;;9.50;3.53;;;7.50;99.90;;;;;;5052445;28;20463;-76
2023/12/25 10:17:19;;;;;;;17.97;4.70;;;7.60;99.90;;;;;;5048750;28;20486;-70
2023/12/25 10:19:55;;;;;;;9.67;3.67;;;7.60;99.90;;;;;;5051359;28;20525;-75
2023/12/25 10:22:32;;;;;;;10.33;4.07;;;7.50;99.90;;;;;;5052683;28;20213;-66
2023/12/25 10:25:11;;;;;;;11.57;3.80;;;7.40;99.90;;;;;;5050750;28;20857;-69
2023/12/25 10:27:42;;;;;;;12.60;4.90;;;7.40;99.90;;;;;;5053329;28;20475;-76
2023/12/25 10:30:15;;;;;;;16.83;4.30;;;7.40;99.90;;;;;;5053390;28;20488;-73
2023/12/25 10:32:40;;;;;;;7.37;3.20;;;7.40;99.90;;;;;;5053409;28;20765;-67
2023/12/25 10:35:10;;;;;;;9.63;3.90;;;7.40;99.90;;;;;;5052028;28;20500;-76
2023/12/25 10:37:38;;;;;;;14.77;5.30;;;7.40;99.90;;;;;;5053069;28;20682;-65
2023/12/25 10:40:17;;;;;;;18.67;4.00;;;7.40;99.90;;;;;;5052653;28;20428;-73
2023/12/25 10:42:43;;;;;;;16.00;3.23;;;7.50;99.90;;;;;;5053110;28;20409;-67
2023/12/25 10:45:10;;;;;;;13.93;3.60;;;7.50;99.90;;;;;;5052063;28;20791;-71
2023/12/25 10:47:37;;;;;;;10.40;3.97;;;7.60;99.70;;;;;;5058603;28;20470;-67
2023/12/25 10:50:04;;;;;;;12.00;3.47;;;7.70;98.70;;;;;;5073140;28;20429;-67
2023/12/25 10:52:30;;;;;;;19.60;3.50;;;7.70;99.30;;;;;;5073049;28;20476;-75
2023/12/25 10:54:56;;;;;;;14.03;4.87;;;7.80;91.60;;;;;;5071888;28;20496;-66
2023/12/25 10:57:23;;;;;;;9.00;4.60;;;7.70;91.60;;;;;;5071190;28;20212;-74
2023/12/25 10:59:50;;;;;;;21.60;6.07;;;7.80;91.60;;;;;;5073039;28;20405;-75
2023/12/25 11:02:16;;;;;;;16.90;4.17;;;7.80;88.60;;;;;;5071761;28;20746;-67
2023/12/25 11:04:46;;;;;;;16.03;4.60;;;7.90;77.10;;;;;;5071956;28;20448;-74
2023/12/25 11:07:13;;;;;;;11.30;3.97;;;7.90;75.80;;;;;;5072798;28;20423;-65
2023/12/25 11:09:40;;;;;;;15.63;4.67;;;8.00;70.60;;;;;;5072792;28;20550;-74
2023/12/25 11:12:07;;;;;;;13.43;3.97;;;8.10;79.00;;;;;;5072790;28;20731;-67
2023/12/25 11:14:33;;;;;;;17.53;5.20;;;8.10;69.70;;;;;;5071284;28;20405;-68
2023/12/25 11:17:01;;;;;;;10.30;4.30;;;8.10;62.50;;;;;;5053476;28;20404;-65
2023/12/25 11:19:27;;;;;;;10.10;4.10;;;8.10;48.30;;;;;;5031720;28;20420;-66
2023/12/25 11:21:53;;;;;;;12.73;3.70;;;8.10;30.40;;;;;;5032869;28;20379;-65
2023/12/25 11:24:19;;;;;;;10.47;5.00;;;8.10;24.00;;;;;;5032652;28;20436;-66
2023/12/25 11:26:45;;;;;;;21.20;4.50;;;8.10;21.20;;;;;;5048591;28;20408;-68
2023/12/25 11:29:11;;;;;;;19.93;4.63;;;8.00;14.70;;;;;;5052650;28;20409;-75
2023/12/25 11:31:55;;;;;;;15.87;4.13;;;8.00;7.60;;;;;;5052468;28;20436;-70
2023/12/25 11:34:23;;;;;;;18.47;3.37;;;7.90;6.80;;;;;;5071121;28;20379;-70
2023/12/25 11:36:51;;;;;;;19.27;4.73;;;7.90;2.50;;;;;;5071485;28;20459;-74
2023/12/25 11:39:17;;;;;;;9.20;3.80;;;7.80;3.30;;;;;;5072738;28;20950;-72
2023/12/25 11:41:45;;;;;;;15.50;4.17;;;7.80;1.00;;;;;;5072527;28;20406;-68
2023/12/25 11:44:17;;;;;;;12.63;4.30;;;7.80;1.00;;;;;;5071430;28;20402;-75
2023/12/25 11:46:47;;;;;;;17.33;4.63;;;7.90;2.00;;;;;;5070275;28;20834;-65
2023/12/25 11:49:14;;;;;;;15.83;3.80;;;8.00;2.90;;;;;;5071512;28;20960;-75
2023/12/25 11:51:46;;;;;;;14.47;4.10;;;8.00;1.00;;;;;;5072117;28;20435;-65
2023/12/25 11:54:12;;;;;;;23.07;5.17;;;8.00;1.00;;;;;;5072309;28;20428;-65
2023/12/25 11:56:38;;;;;;;16.40;4.47;;;8.10;1.00;;;;;;5071539;28;20402;-65
2023/12/25 11:59:05;;;;;;;17.77;4.57;;;8.00;1.00;;;;;;5070875;28;20190;-76
2023/12/25 12:01:30;;;;;;;18.47;5.23;;;8.10;1.00;;;;;;5036533;28;20407;-66
2023/12/25 12:03:57;;;;;;;12.63;5.87;;;8.10;1.00;;;;;;5069288;28;20798;-76
2023/12/25 12:06:22;;;;;;;16.00;3.63;;;8.20;1.00;;;;;;5071093;28;20261;-75
2023/12/25 12:08:48;;;;;;;13.53;4.50;;;8.20;1.00;;;;;;5066174;28;20423;-67
2023/12/25 12:11:15;;;;;;;9.00;3.70;;;8.10;1.00;;;;;;5051968;28;20212;-75
2023/12/25 12:13:42;;;;;;;12.63;4.00;;;8.00;1.00;;;;;;5052280;28;20394;-68
2023/12/25 12:16:08;;;;;;;10.30;3.60;;;7.90;1.00;;;;;;5051274;28;20406;-66
2023/12/25 12:18:34;;;;;;;15.47;4.67;;;7.90;1.00;;;;;;5051817;28;20455;-64
2023/12/25 12:21:00;;;;;;;9.60;4.00;;;7.80;1.00;;;;;;5053158;28;20574;-69
2023/12/25 12:23:33;;;;;;;9.37;3.90;;;7.90;1.00;;;;;;5054570;28;20421;-75
2023/12/25 12:25:59;;;;;;;10.33;3.40;;;7.90;1.00;;;;;;5054373;28;20200;-72
2023/12/25 12:28:25;;;;;;;12.60;3.83;;;7.90;1.00;;;;;;5054193;28;20478;-65
2023/12/25 12:30:53;;;;;;;26.00;4.67;;;7.90;1.00;;;;;;5055754;28;20398;-65
2023/12/25 12:33:19;;;;;;;14.40;4.13;;;7.90;1.00;;;;;;5068555;28;20425;-68
2023/12/25 12:35:49;;;;;;;11.50;4.60;;;7.80;1.00;;;;;;5074826;28;21142;-65
2023/12/25 12:38:15;;;;;;;18.67;4.83;;;7.80;1.00;;;;;;5075443;28;20428;-65
2023/12/25 12:40:41;;;;;;;22.00;4.07;;;7.80;1.00;;;;;;5059860;28;20452;-72
2023/12/25 12:43:06;;;;;;;18.30;4.30;;;7.80;1.00;;;;;;5054227;28;20175;-66
2023/12/25 12:45:32;;;;;;;17.20;4.07;;;7.80;1.00;;;;;;5053845;28;20550;-68
2023/12/25 12:47:58;;;;;;;22.63;7.17;;;7.80;1.00;;;;;;5053862;28;20667;-66
2023/12/25 12:50:25;;;;;;;16.53;4.70;;;7.90;1.00;;;;;;5063846;28;20171;-76